sensor_id;sensor_type;location;lat;lon;timestamp;temperature;humidity
4697;DHT22;2362;50.780;0.292;2024-03-02T00:02:24;6.30;98.20
4697;DHT22;2362;50.780;0.292;2024-03-02T00:04:51;6.30;98.20
4697;DHT22;2362;50.780;0.292;2024-03-02T00:07:17;6.30;98.90
4697;DHT22;2362;50.780;0.292;2024-03-02T00:09:43;6.20;98.70
4697;DHT22;2362;50.780;0.292;2024-03-02T00:12:11;6.20;98.70
4697;DHT22;2362;50.780;0.292;2024-03-02T00:14:41;6.20;98.40
4697;DHT22;2362;50.780;0.292;2024-03-02T00:17:17;6.30;99.00
4697;DHT22;2362;50.780;0.292;2024-03-02T00:19:47;6.40;99.00
4697;DHT22;2362;50.780;0.292;2024-03-02T00:22:12;6.40;98.90
4697;DHT22;2362;50.780;0.292;2024-03-02T00:24:38;6.40;98.10
4697;DHT22;2362;50.780;0.292;2024-03-02T00:27:05;6.40;97.80
4697;DHT22;2362;50.780;0.292;2024-03-02T00:29:32;6.40;97.90
4697;DHT22;2362;50.780;0.292;2024-03-02T00:31:58;6.40;97.80
4697;DHT22;2362;50.780;0.292;2024-03-02T00:34:24;6.30;98.30
4697;DHT22;2362;50.780;0.292;2024-03-02T00:36:50;6.30;97.80
4697;DHT22;2362;50.780;0.292;2024-03-02T00:39:16;6.30;97.50
4697;DHT22;2362;50.780;0.292;2024-03-02T00:41:43;6.30;97.40
4697;DHT22;2362;50.780;0.292;2024-03-02T00:44:12;6.30;97.80
4697;DHT22;2362;50.780;0.292;2024-03-02T00:46:40;6.30;97.30
4697;DHT22;2362;50.780;0.292;2024-03-02T00:49:16;6.30;97.70
4697;DHT22;2362;50.780;0.292;2024-03-02T00:51:46;6.40;98.30
4697;DHT22;2362;50.780;0.292;2024-03-02T00:54:14;6.40;98.20
4697;DHT22;2362;50.780;0.292;2024-03-02T00:56:41;6.30;97.80
4697;DHT22;2362;50.780;0.292;2024-03-02T00:59:07;6.30;97.90
4697;DHT22;2362;50.780;0.292;2024-03-02T01:01:34;6.30;98.30
4697;DHT22;2362;50.780;0.292;2024-03-02T01:04:00;6.40;98.80
4697;DHT22;2362;50.780;0.292;2024-03-02T01:06:26;6.50;98.70
4697;DHT22;2362;50.780;0.292;2024-03-02T01:08:51;6.50;98.50
4697;DHT22;2362;50.780;0.292;2024-03-02T01:11:17;6.50;98.30
4697;DHT22;2362;50.780;0.292;2024-03-02T01:13:44;6.50;98.30
4697;DHT22;2362;50.780;0.292;2024-03-02T01:16:10;6.60;97.80
4697;DHT22;2362;50.780;0.292;2024-03-02T01:18:36;6.60;97.20
4697;DHT22;2362;50.780;0.292;2024-03-02T01:21:01;6.60;97.40
4697;DHT22;2362;50.780;0.292;2024-03-02T01:23:27;6.60;97.90
4697;DHT22;2362;50.780;0.292;2024-03-02T01:25:52;6.70;97.60
4697;DHT22;2362;50.780;0.292;2024-03-02T01:28:18;6.70;97.60
4697;DHT22;2362;50.780;0.292;2024-03-02T01:30:44;6.60;97.30
4697;DHT22;2362;50.780;0.292;2024-03-02T01:33:10;6.60;97.40
4697;DHT22;2362;50.780;0.292;2024-03-02T01:35:36;6.50;97.60
4697;DHT22;2362;50.780;0.292;2024-03-02T01:38:03;6.50;97.70
4697;DHT22;2362;50.780;0.292;2024-03-02T01:40:28;6.50;97.30
4697;DHT22;2362;50.780;0.292;2024-03-02T01:42:54;6.40;97.80
4697;DHT22;2362;50.780;0.292;2024-03-02T01:45:21;6.40;98.00
4697;DHT22;2362;50.780;0.292;2024-03-02T01:47:47;6.40;98.30
4697;DHT22;2362;50.780;0.292;2024-03-02T01:50:13;6.40;98.10
4697;DHT22;2362;50.780;0.292;2024-03-02T01:52:39;6.40;98.20
4697;DHT22;2362;50.780;0.292;2024-03-02T01:55:05;6.30;98.60
4697;DHT22;2362;50.780;0.292;2024-03-02T01:57:32;6.30;98.80
4697;DHT22;2362;50.780;0.292;2024-03-02T01:59:58;6.40;99.10
4697;DHT22;2362;50.780;0.292;2024-03-02T02:02:24;6.50;98.80
4697;DHT22;2362;50.780;0.292;2024-03-02T02:04:49;6.60;98.20
4697;DHT22;2362;50.780;0.292;2024-03-02T02:07:15;6.60;98.50
4697;DHT22;2362;50.780;0.292;2024-03-02T02:09:44;6.70;98.40
4697;DHT22;2362;50.780;0.292;2024-03-02T02:12:10;6.80;98.80
4697;DHT22;2362;50.780;0.292;2024-03-02T02:14:36;6.80;98.60
4697;DHT22;2362;50.780;0.292;2024-03-02T02:17:02;6.80;98.60
4697;DHT22;2362;50.780;0.292;2024-03-02T02:19:28;6.70;98.90
4697;DHT22;2362;50.780;0.292;2024-03-02T02:21:54;6.80;98.80
4697;DHT22;2362;50.780;0.292;2024-03-02T02:24:20;6.80;98.40
4697;DHT22;2362;50.780;0.292;2024-03-02T02:26:46;6.80;98.50
4697;DHT22;2362;50.780;0.292;2024-03-02T02:29:11;6.80;98.50
4697;DHT22;2362;50.780;0.292;2024-03-02T02:34:14;6.90;98.50
4697;DHT22;2362;50.780;0.292;2024-03-02T02:36:40;6.90;98.60
4697;DHT22;2362;50.780;0.292;2024-03-02T02:39:07;6.90;98.50
4697;DHT22;2362;50.780;0.292;2024-03-02T02:41:33;6.90;97.90
4697;DHT22;2362;50.780;0.292;2024-03-02T02:43:59;6.90;98.50
4697;DHT22;2362;50.780;0.292;2024-03-02T02:46:24;6.90;98.80
4697;DHT22;2362;50.780;0.292;2024-03-02T02:48:50;6.90;98.60
4697;DHT22;2362;50.780;0.292;2024-03-02T02:51:18;6.80;98.60
4697;DHT22;2362;50.780;0.292;2024-03-02T02:53:44;6.80;98.40
4697;DHT22;2362;50.780;0.292;2024-03-02T02:56:09;6.80;97.90
4697;DHT22;2362;50.780;0.292;2024-03-02T02:58:35;6.80;98.00
4697;DHT22;2362;50.780;0.292;2024-03-02T03:01:01;6.70;98.50
4697;DHT22;2362;50.780;0.292;2024-03-02T03:03:27;6.70;98.60
4697;DHT22;2362;50.780;0.292;2024-03-02T03:05:52;6.70;98.70
4697;DHT22;2362;50.780;0.292;2024-03-02T03:08:18;6.70;98.90
4697;DHT22;2362;50.780;0.292;2024-03-02T03:10:44;6.70;98.50
4697;DHT22;2362;50.780;0.292;2024-03-02T03:13:10;6.80;98.50
4697;DHT22;2362;50.780;0.292;2024-03-02T03:15:36;6.80;99.00
4697;DHT22;2362;50.780;0.292;2024-03-02T03:18:05;6.90;98.80
4697;DHT22;2362;50.780;0.292;2024-03-02T03:20:31;6.90;99.00
4697;DHT22;2362;50.780;0.292;2024-03-02T03:22:57;6.90;98.50
4697;DHT22;2362;50.780;0.292;2024-03-02T03:25:23;6.90;98.80
4697;DHT22;2362;50.780;0.292;2024-03-02T03:27:48;6.90;98.70
4697;DHT22;2362;50.780;0.292;2024-03-02T03:30:14;7.00;98.80
4697;DHT22;2362;50.780;0.292;2024-03-02T03:32:40;7.00;98.80
4697;DHT22;2362;50.780;0.292;2024-03-02T03:35:06;7.00;98.70
4697;DHT22;2362;50.780;0.292;2024-03-02T03:37:32;7.10;98.80
4697;DHT22;2362;50.780;0.292;2024-03-02T03:40:07;7.10;98.80
4697;DHT22;2362;50.780;0.292;2024-03-02T03:42:37;7.20;98.40
4697;DHT22;2362;50.780;0.292;2024-03-02T03:45:03;7.30;98.60
4697;DHT22;2362;50.780;0.292;2024-03-02T03:47:29;7.30;98.20
4697;DHT22;2362;50.780;0.292;2024-03-02T03:49:56;7.30;98.60
4697;DHT22;2362;50.780;0.292;2024-03-02T03:52:21;7.30;98.20
4697;DHT22;2362;50.780;0.292;2024-03-02T03:54:47;7.30;97.90
4697;DHT22;2362;50.780;0.292;2024-03-02T03:57:13;7.30;97.30
4697;DHT22;2362;50.780;0.292;2024-03-02T03:59:38;7.20;97.60
4697;DHT22;2362;50.780;0.292;2024-03-02T04:02:04;7.20;98.00
4697;DHT22;2362;50.780;0.292;2024-03-02T04:04:30;7.10;98.00
4697;DHT22;2362;50.780;0.292;2024-03-02T04:06:55;7.20;98.60
4697;DHT22;2362;50.780;0.292;2024-03-02T04:09:21;7.10;98.00
4697;DHT22;2362;50.780;0.292;2024-03-02T04:11:46;7.20;98.00
4697;DHT22;2362;50.780;0.292;2024-03-02T04:14:12;7.20;97.90
4697;DHT22;2362;50.780;0.292;2024-03-02T04:16:38;7.20;97.60
4697;DHT22;2362;50.780;0.292;2024-03-02T04:19:04;7.20;97.40
4697;DHT22;2362;50.780;0.292;2024-03-02T04:21:30;7.20;97.60
4697;DHT22;2362;50.780;0.292;2024-03-02T04:23:56;7.20;97.50
4697;DHT22;2362;50.780;0.292;2024-03-02T04:26:24;7.20;98.10
4697;DHT22;2362;50.780;0.292;2024-03-02T04:28:51;7.30;98.10
4697;DHT22;2362;50.780;0.292;2024-03-02T04:31:17;7.20;98.00
4697;DHT22;2362;50.780;0.292;2024-03-02T04:33:43;7.20;98.10
4697;DHT22;2362;50.780;0.292;2024-03-02T04:36:08;7.20;98.40
4697;DHT22;2362;50.780;0.292;2024-03-02T04:38:37;7.20;98.20
4697;DHT22;2362;50.780;0.292;2024-03-02T04:41:04;7.20;98.00
4697;DHT22;2362;50.780;0.292;2024-03-02T04:43:31;7.20;98.00
4697;DHT22;2362;50.780;0.292;2024-03-02T04:45:58;7.30;98.00
4697;DHT22;2362;50.780;0.292;2024-03-02T04:48:24;7.30;97.60
4697;DHT22;2362;50.780;0.292;2024-03-02T04:50:49;7.30;98.00
4697;DHT22;2362;50.780;0.292;2024-03-02T04:53:15;7.30;97.90
4697;DHT22;2362;50.780;0.292;2024-03-02T04:55:41;7.30;97.80
4697;DHT22;2362;50.780;0.292;2024-03-02T04:58:06;7.30;97.60
4697;DHT22;2362;50.780;0.292;2024-03-02T05:00:32;7.30;97.50
4697;DHT22;2362;50.780;0.292;2024-03-02T05:02:58;7.30;97.60
4697;DHT22;2362;50.780;0.292;2024-03-02T05:05:24;7.20;97.40
4697;DHT22;2362;50.780;0.292;2024-03-02T05:07:49;7.20;97.40
4697;DHT22;2362;50.780;0.292;2024-03-02T05:10:15;7.20;97.30
4697;DHT22;2362;50.780;0.292;2024-03-02T05:12:41;7.20;97.50
4697;DHT22;2362;50.780;0.292;2024-03-02T05:15:13;7.30;97.20
4697;DHT22;2362;50.780;0.292;2024-03-02T05:17:40;7.30;97.90
4697;DHT22;2362;50.780;0.292;2024-03-02T05:20:07;7.30;97.60
4697;DHT22;2362;50.780;0.292;2024-03-02T05:22:36;7.30;98.00
4697;DHT22;2362;50.780;0.292;2024-03-02T05:25:05;7.30;98.00
4697;DHT22;2362;50.780;0.292;2024-03-02T05:27:31;7.40;98.30
4697;DHT22;2362;50.780;0.292;2024-03-02T05:29:58;7.30;97.80
4697;DHT22;2362;50.780;0.292;2024-03-02T05:32:24;7.40;98.20
4697;DHT22;2362;50.780;0.292;2024-03-02T05:34:49;7.40;97.90
4697;DHT22;2362;50.780;0.292;2024-03-02T05:37:16;7.40;98.00
4697;DHT22;2362;50.780;0.292;2024-03-02T05:39:42;7.40;97.80
4697;DHT22;2362;50.780;0.292;2024-03-02T05:42:09;7.40;97.70
4697;DHT22;2362;50.780;0.292;2024-03-02T05:44:36;7.40;97.70
4697;DHT22;2362;50.780;0.292;2024-03-02T05:47:01;7.50;97.70
4697;DHT22;2362;50.780;0.292;2024-03-02T05:49:27;7.50;97.80
4697;DHT22;2362;50.780;0.292;2024-03-02T05:51:53;7.50;98.30
4697;DHT22;2362;50.780;0.292;2024-03-02T05:54:18;7.50;98.50
4697;DHT22;2362;50.780;0.292;2024-03-02T05:56:45;7.40;99.10
4697;DHT22;2362;50.780;0.292;2024-03-02T05:59:11;7.40;99.30
4697;DHT22;2362;50.780;0.292;2024-03-02T06:01:46;7.30;99.90
4697;DHT22;2362;50.780;0.292;2024-03-02T06:04:13;7.30;99.90
4697;DHT22;2362;50.780;0.292;2024-03-02T06:06:39;7.20;99.90
4697;DHT22;2362;50.780;0.292;2024-03-02T06:09:05;7.20;99.90
4697;DHT22;2362;50.780;0.292;2024-03-02T06:11:37;7.20;99.90
4697;DHT22;2362;50.780;0.292;2024-03-02T06:14:07;7.20;99.70
4697;DHT22;2362;50.780;0.292;2024-03-02T06:16:33;7.20;99.90
4697;DHT22;2362;50.780;0.292;2024-03-02T06:18:59;7.20;99.60
4697;DHT22;2362;50.780;0.292;2024-03-02T06:21:25;7.20;99.70
4697;DHT22;2362;50.780;0.292;2024-03-02T06:23:51;7.30;99.00
4697;DHT22;2362;50.780;0.292;2024-03-02T06:26:17;7.30;98.80
4697;DHT22;2362;50.780;0.292;2024-03-02T06:28:43;7.30;99.00
4697;DHT22;2362;50.780;0.292;2024-03-02T06:31:09;7.20;99.30
4697;DHT22;2362;50.780;0.292;2024-03-02T06:33:34;7.30;99.40
4697;DHT22;2362;50.780;0.292;2024-03-02T06:36:00;7.30;99.00
4697;DHT22;2362;50.780;0.292;2024-03-02T06:38:26;7.30;99.20
4697;DHT22;2362;50.780;0.292;2024-03-02T06:40:51;7.30;99.30
4697;DHT22;2362;50.780;0.292;2024-03-02T06:43:17;7.20;99.70
4697;DHT22;2362;50.780;0.292;2024-03-02T06:45:43;7.20;99.60
4697;DHT22;2362;50.780;0.292;2024-03-02T06:48:08;7.30;99.40
4697;DHT22;2362;50.780;0.292;2024-03-02T06:50:34;7.30;99.10
4697;DHT22;2362;50.780;0.292;2024-03-02T06:53:00;7.40;98.90
4697;DHT22;2362;50.780;0.292;2024-03-02T06:55:25;7.40;98.60
4697;DHT22;2362;50.780;0.292;2024-03-02T06:57:51;7.40;99.00
4697;DHT22;2362;50.780;0.292;2024-03-02T07:00:20;7.40;98.70
4697;DHT22;2362;50.780;0.292;2024-03-02T07:02:46;7.40;98.30
4697;DHT22;2362;50.780;0.292;2024-03-02T07:05:12;7.40;98.40
4697;DHT22;2362;50.780;0.292;2024-03-02T07:07:38;7.40;99.20
4697;DHT22;2362;50.780;0.292;2024-03-02T07:10:06;7.40;99.70
4697;DHT22;2362;50.780;0.292;2024-03-02T07:12:33;7.40;99.50
4697;DHT22;2362;50.780;0.292;2024-03-02T07:14:58;7.30;99.90
4697;DHT22;2362;50.780;0.292;2024-03-02T07:17:30;7.40;99.70
4697;DHT22;2362;50.780;0.292;2024-03-02T07:19:56;7.40;99.50
4697;DHT22;2362;50.780;0.292;2024-03-02T07:22:22;7.40;99.30
4697;DHT22;2362;50.780;0.292;2024-03-02T07:24:48;7.40;99.50
4697;DHT22;2362;50.780;0.292;2024-03-02T07:27:15;7.50;99.30
4697;DHT22;2362;50.780;0.292;2024-03-02T07:29:41;7.50;98.40
4697;DHT22;2362;50.780;0.292;2024-03-02T07:32:07;7.40;98.40
4697;DHT22;2362;50.780;0.292;2024-03-02T07:34:33;7.50;98.90
4697;DHT22;2362;50.780;0.292;2024-03-02T07:36:58;7.50;99.20
4697;DHT22;2362;50.780;0.292;2024-03-02T07:39:25;7.60;99.50
4697;DHT22;2362;50.780;0.292;2024-03-02T07:41:51;7.60;98.00
4697;DHT22;2362;50.780;0.292;2024-03-02T07:44:16;7.60;97.90
4697;DHT22;2362;50.780;0.292;2024-03-02T07:46:44;7.60;97.30
4697;DHT22;2362;50.780;0.292;2024-03-02T07:49:12;7.50;98.10
4697;DHT22;2362;50.780;0.292;2024-03-02T07:51:39;7.50;98.70
4697;DHT22;2362;50.780;0.292;2024-03-02T07:54:04;7.50;98.80
4697;DHT22;2362;50.780;0.292;2024-03-02T07:56:30;7.40;98.90
4697;DHT22;2362;50.780;0.292;2024-03-02T07:58:56;7.30;99.40
4697;DHT22;2362;50.780;0.292;2024-03-02T08:01:29;7.40;99.20
4697;DHT22;2362;50.780;0.292;2024-03-02T08:03:59;7.40;99.10
4697;DHT22;2362;50.780;0.292;2024-03-02T08:06:28;7.50;99.10
4697;DHT22;2362;50.780;0.292;2024-03-02T08:08:55;7.50;99.20
4697;DHT22;2362;50.780;0.292;2024-03-02T08:11:21;7.50;99.10
4697;DHT22;2362;50.780;0.292;2024-03-02T08:13:47;7.40;98.70
4697;DHT22;2362;50.780;0.292;2024-03-02T08:16:17;7.50;98.80
4697;DHT22;2362;50.780;0.292;2024-03-02T08:18:46;7.50;98.90
4697;DHT22;2362;50.780;0.292;2024-03-02T08:21:12;7.50;97.50
4697;DHT22;2362;50.780;0.292;2024-03-02T08:23:38;7.50;97.70
4697;DHT22;2362;50.780;0.292;2024-03-02T08:26:03;7.60;97.80
4697;DHT22;2362;50.780;0.292;2024-03-02T08:28:29;7.60;97.40
4697;DHT22;2362;50.780;0.292;2024-03-02T08:30:55;7.60;97.50
4697;DHT22;2362;50.780;0.292;2024-03-02T08:33:22;7.70;97.10
4697;DHT22;2362;50.780;0.292;2024-03-02T08:35:47;7.70;96.50
4697;DHT22;2362;50.780;0.292;2024-03-02T08:38:13;7.70;97.10
4697;DHT22;2362;50.780;0.292;2024-03-02T08:40:39;7.70;97.30
4697;DHT22;2362;50.780;0.292;2024-03-02T08:43:05;7.70;97.10
4697;DHT22;2362;50.780;0.292;2024-03-02T08:45:30;7.70;97.10
4697;DHT22;2362;50.780;0.292;2024-03-02T08:47:56;7.70;97.70
4697;DHT22;2362;50.780;0.292;2024-03-02T08:50:22;7.70;98.40
4697;DHT22;2362;50.780;0.292;2024-03-02T08:52:47;7.70;98.80
4697;DHT22;2362;50.780;0.292;2024-03-02T08:55:13;7.60;99.00
4697;DHT22;2362;50.780;0.292;2024-03-02T08:57:39;7.50;99.40
4697;DHT22;2362;50.780;0.292;2024-03-02T09:00:05;7.50;99.50
4697;DHT22;2362;50.780;0.292;2024-03-02T09:02:33;7.60;99.80
4697;DHT22;2362;50.780;0.292;2024-03-02T09:04:58;7.60;99.80
4697;DHT22;2362;50.780;0.292;2024-03-02T09:07:24;7.70;99.80
4697;DHT22;2362;50.780;0.292;2024-03-02T09:09:49;7.80;99.30
4697;DHT22;2362;50.780;0.292;2024-03-02T09:12:15;7.80;99.40
4697;DHT22;2362;50.780;0.292;2024-03-02T09:14:41;7.80;99.10
4697;DHT22;2362;50.780;0.292;2024-03-02T09:17:07;7.80;98.80
4697;DHT22;2362;50.780;0.292;2024-03-02T09:19:33;7.90;98.50
4697;DHT22;2362;50.780;0.292;2024-03-02T09:21:59;7.90;98.30
4697;DHT22;2362;50.780;0.292;2024-03-02T09:24:24;7.90;98.50
4697;DHT22;2362;50.780;0.292;2024-03-02T09:26:50;7.90;98.80
4697;DHT22;2362;50.780;0.292;2024-03-02T09:29:16;7.90;98.50
4697;DHT22;2362;50.780;0.292;2024-03-02T09:31:42;7.80;98.40
4697;DHT22;2362;50.780;0.292;2024-03-02T09:34:08;7.90;99.20
4697;DHT22;2362;50.780;0.292;2024-03-02T09:36:34;7.90;99.00
4697;DHT22;2362;50.780;0.292;2024-03-02T09:39:00;7.90;99.50
4697;DHT22;2362;50.780;0.292;2024-03-02T09:41:25;7.90;98.90
4697;DHT22;2362;50.780;0.292;2024-03-02T09:43:51;7.90;98.80
4697;DHT22;2362;50.780;0.292;2024-03-02T09:46:18;7.90;98.50
4697;DHT22;2362;50.780;0.292;2024-03-02T09:48:44;7.90;98.70
4697;DHT22;2362;50.780;0.292;2024-03-02T09:51:11;8.00;98.60
4697;DHT22;2362;50.780;0.292;2024-03-02T09:53:37;8.00;98.90
4697;DHT22;2362;50.780;0.292;2024-03-02T09:56:03;8.00;98.50
4697;DHT22;2362;50.780;0.292;2024-03-02T09:58:30;8.10;97.70
4697;DHT22;2362;50.780;0.292;2024-03-02T10:00:56;8.20;97.60
4697;DHT22;2362;50.780;0.292;2024-03-02T10:03:22;8.30;97.60
4697;DHT22;2362;50.780;0.292;2024-03-02T10:05:48;8.30;97.40
4697;DHT22;2362;50.780;0.292;2024-03-02T10:08:14;8.40;96.90
4697;DHT22;2362;50.780;0.292;2024-03-02T10:10:41;8.30;96.60
4697;DHT22;2362;50.780;0.292;2024-03-02T10:13:10;8.40;97.20
4697;DHT22;2362;50.780;0.292;2024-03-02T10:15:36;8.50;96.70
4697;DHT22;2362;50.780;0.292;2024-03-02T10:18:10;8.60;97.00
4697;DHT22;2362;50.780;0.292;2024-03-02T10:20:40;8.60;95.80
4697;DHT22;2362;50.780;0.292;2024-03-02T10:23:13;8.70;96.10
4697;DHT22;2362;50.780;0.292;2024-03-02T10:25:40;8.60;95.70
4697;DHT22;2362;50.780;0.292;2024-03-02T10:28:06;8.60;95.90
4697;DHT22;2362;50.780;0.292;2024-03-02T10:30:34;8.50;96.00
4697;DHT22;2362;50.780;0.292;2024-03-02T10:33:01;8.60;96.10
4697;DHT22;2362;50.780;0.292;2024-03-02T10:35:27;8.60;96.20
4697;DHT22;2362;50.780;0.292;2024-03-02T10:37:53;8.70;95.70
4697;DHT22;2362;50.780;0.292;2024-03-02T10:40:22;8.70;95.70
4697;DHT22;2362;50.780;0.292;2024-03-02T10:42:50;8.70;95.30
4697;DHT22;2362;50.780;0.292;2024-03-02T10:45:20;8.60;95.60
4697;DHT22;2362;50.780;0.292;2024-03-02T10:47:49;8.60;95.60
4697;DHT22;2362;50.780;0.292;2024-03-02T10:50:15;8.60;95.60
4697;DHT22;2362;50.780;0.292;2024-03-02T10:52:41;8.70;96.40
4697;DHT22;2362;50.780;0.292;2024-03-02T10:55:11;8.70;96.30
4697;DHT22;2362;50.780;0.292;2024-03-02T10:57:53;8.60;95.80
4697;DHT22;2362;50.780;0.292;2024-03-02T11:00:20;8.50;96.30
4697;DHT22;2362;50.780;0.292;2024-03-02T11:03:10;8.60;97.10
4697;DHT22;2362;50.780;0.292;2024-03-02T11:05:43;8.70;97.00
4697;DHT22;2362;50.780;0.292;2024-03-02T11:08:14;8.90;97.10
4697;DHT22;2362;50.780;0.292;2024-03-02T11:10:48;9.10;96.20
4697;DHT22;2362;50.780;0.292;2024-03-02T11:13:18;9.20;96.50
4697;DHT22;2362;50.780;0.292;2024-03-02T11:15:47;9.30;96.70
4697;DHT22;2362;50.780;0.292;2024-03-02T11:18:13;9.30;96.90
4697;DHT22;2362;50.780;0.292;2024-03-02T11:20:40;9.30;97.10
4697;DHT22;2362;50.780;0.292;2024-03-02T11:23:09;9.30;96.70
4697;DHT22;2362;50.780;0.292;2024-03-02T11:25:35;9.30;96.30
4697;DHT22;2362;50.780;0.292;2024-03-02T11:28:03;9.20;96.80
4697;DHT22;2362;50.780;0.292;2024-03-02T11:33:02;8.80;97.30
4697;DHT22;2362;50.780;0.292;2024-03-02T11:35:44;8.50;98.20
4697;DHT22;2362;50.780;0.292;2024-03-02T11:38:13;8.30;98.90
4697;DHT22;2362;50.780;0.292;2024-03-02T11:40:40;8.10;98.40
4697;DHT22;2362;50.780;0.292;2024-03-02T11:43:06;8.00;98.20
4697;DHT22;2362;50.780;0.292;2024-03-02T11:45:33;7.90;98.90
4697;DHT22;2362;50.780;0.292;2024-03-02T11:48:01;7.70;99.20
4697;DHT22;2362;50.780;0.292;2024-03-02T11:52:56;7.00;99.90
4697;DHT22;2362;50.780;0.292;2024-03-02T11:55:25;6.90;99.90
4697;DHT22;2362;50.780;0.292;2024-03-02T11:57:52;7.00;99.90
4697;DHT22;2362;50.780;0.292;2024-03-02T12:00:19;7.10;99.90
4697;DHT22;2362;50.780;0.292;2024-03-02T12:03:10;7.20;99.90
4697;DHT22;2362;50.780;0.292;2024-03-02T12:05:37;7.30;99.90
4697;DHT22;2362;50.780;0.292;2024-03-02T12:08:04;7.40;99.90
4697;DHT22;2362;50.780;0.292;2024-03-02T12:10:31;7.40;99.90
4697;DHT22;2362;50.780;0.292;2024-03-02T12:13:01;7.50;99.90
4697;DHT22;2362;50.780;0.292;2024-03-02T12:15:28;7.50;99.90
4697;DHT22;2362;50.780;0.292;2024-03-02T12:17:58;7.60;99.90
4697;DHT22;2362;50.780;0.292;2024-03-02T12:20:25;7.60;99.90
4697;DHT22;2362;50.780;0.292;2024-03-02T12:22:52;7.70;99.90
4697;DHT22;2362;50.780;0.292;2024-03-02T12:25:22;7.80;99.90
4697;DHT22;2362;50.780;0.292;2024-03-02T12:27:50;7.80;99.90
4697;DHT22;2362;50.780;0.292;2024-03-02T12:30:17;7.80;99.90
4697;DHT22;2362;50.780;0.292;2024-03-02T12:32:44;7.70;99.90
4697;DHT22;2362;50.780;0.292;2024-03-02T12:35:13;7.70;99.90
4697;DHT22;2362;50.780;0.292;2024-03-02T12:37:52;7.80;99.90
4697;DHT22;2362;50.780;0.292;2024-03-02T12:40:19;8.00;99.90
4697;DHT22;2362;50.780;0.292;2024-03-02T12:42:46;8.30;99.90
4697;DHT22;2362;50.780;0.292;2024-03-02T12:45:12;8.40;99.90
4697;DHT22;2362;50.780;0.292;2024-03-02T12:47:42;8.60;99.90
4697;DHT22;2362;50.780;0.292;2024-03-02T12:50:09;8.60;99.90
4697;DHT22;2362;50.780;0.292;2024-03-02T12:52:35;8.60;99.90
4697;DHT22;2362;50.780;0.292;2024-03-02T12:55:05;8.60;99.90
4697;DHT22;2362;50.780;0.292;2024-03-02T12:57:32;8.60;99.70
4697;DHT22;2362;50.780;0.292;2024-03-02T13:00:03;8.50;99.60
4697;DHT22;2362;50.780;0.292;2024-03-02T13:02:35;8.50;99.00
4697;DHT22;2362;50.780;0.292;2024-03-02T13:05:01;8.40;98.70
4697;DHT22;2362;50.780;0.292;2024-03-02T13:07:27;8.30;98.40
4697;DHT22;2362;50.780;0.292;2024-03-02T13:09:55;8.30;99.00
4697;DHT22;2362;50.780;0.292;2024-03-02T13:12:22;8.40;99.20
4697;DHT22;2362;50.780;0.292;2024-03-02T13:14:52;8.40;98.50
4697;DHT22;2362;50.780;0.292;2024-03-02T13:17:18;8.40;98.70
4697;DHT22;2362;50.780;0.292;2024-03-02T13:19:58;8.40;98.60
4697;DHT22;2362;50.780;0.292;2024-03-02T13:22:25;8.30;97.50
4697;DHT22;2362;50.780;0.292;2024-03-02T13:24:52;8.30;98.10
4697;DHT22;2362;50.780;0.292;2024-03-02T13:27:20;8.30;98.20
4697;DHT22;2362;50.780;0.292;2024-03-02T13:29:46;8.30;98.40
4697;DHT22;2362;50.780;0.292;2024-03-02T13:32:16;8.40;98.40
4697;DHT22;2362;50.780;0.292;2024-03-02T13:34:42;8.40;98.20
4697;DHT22;2362;50.780;0.292;2024-03-02T13:37:08;8.60;98.50
4697;DHT22;2362;50.780;0.292;2024-03-02T13:39:34;8.70;98.50
4697;DHT22;2362;50.780;0.292;2024-03-02T13:42:06;8.70;97.90
4697;DHT22;2362;50.780;0.292;2024-03-02T13:44:33;8.90;97.80
4697;DHT22;2362;50.780;0.292;2024-03-02T13:47:00;8.80;98.10
4697;DHT22;2362;50.780;0.292;2024-03-02T13:49:26;9.00;98.40
4697;DHT22;2362;50.780;0.292;2024-03-02T13:52:06;9.00;97.70
4697;DHT22;2362;50.780;0.292;2024-03-02T13:54:46;9.00;96.90
4697;DHT22;2362;50.780;0.292;2024-03-02T13:57:12;9.00;97.70
4697;DHT22;2362;50.780;0.292;2024-03-02T13:59:38;8.90;96.80
4697;DHT22;2362;50.780;0.292;2024-03-02T14:02:08;8.80;96.90
4697;DHT22;2362;50.780;0.292;2024-03-02T14:04:34;8.80;97.80
4697;DHT22;2362;50.780;0.292;2024-03-02T14:07:01;8.90;98.00
4697;DHT22;2362;50.780;0.292;2024-03-02T14:09:26;9.00;97.80
4697;DHT22;2362;50.780;0.292;2024-03-02T14:11:53;9.00;96.90
4697;DHT22;2362;50.780;0.292;2024-03-02T14:14:19;9.00;97.20
4697;DHT22;2362;50.780;0.292;2024-03-02T14:16:46;9.00;96.90
4697;DHT22;2362;50.780;0.292;2024-03-02T14:19:12;9.00;97.20
4697;DHT22;2362;50.780;0.292;2024-03-02T14:21:41;9.00;96.80
4697;DHT22;2362;50.780;0.292;2024-03-02T14:24:07;8.90;96.20
4697;DHT22;2362;50.780;0.292;2024-03-02T14:26:33;8.80;96.40
4697;DHT22;2362;50.780;0.292;2024-03-02T14:28:59;8.90;96.60
4697;DHT22;2362;50.780;0.292;2024-03-02T14:31:27;8.90;97.10
4697;DHT22;2362;50.780;0.292;2024-03-02T14:33:53;9.00;97.00
4697;DHT22;2362;50.780;0.292;2024-03-02T14:36:19;8.90;96.80
4697;DHT22;2362;50.780;0.292;2024-03-02T14:38:45;8.90;96.60
4697;DHT22;2362;50.780;0.292;2024-03-02T14:41:11;8.90;97.00
4697;DHT22;2362;50.780;0.292;2024-03-02T14:43:37;8.90;97.40
4697;DHT22;2362;50.780;0.292;2024-03-02T14:46:03;8.90;97.20
4697;DHT22;2362;50.780;0.292;2024-03-02T14:48:29;8.90;97.10
4697;DHT22;2362;50.780;0.292;2024-03-02T14:50:55;8.90;97.30
4697;DHT22;2362;50.780;0.292;2024-03-02T14:53:21;8.90;96.80
4697;DHT22;2362;50.780;0.292;2024-03-02T14:55:47;8.90;97.10
4697;DHT22;2362;50.780;0.292;2024-03-02T14:58:12;8.90;96.50
4697;DHT22;2362;50.780;0.292;2024-03-02T15:00:38;8.90;96.80
4697;DHT22;2362;50.780;0.292;2024-03-02T15:03:04;8.90;96.50
4697;DHT22;2362;50.780;0.292;2024-03-02T15:05:33;8.80;95.30
4697;DHT22;2362;50.780;0.292;2024-03-02T15:07:58;8.90;95.60
4697;DHT22;2362;50.780;0.292;2024-03-02T15:10:27;8.80;95.90
4697;DHT22;2362;50.780;0.292;2024-03-02T15:12:53;8.90;95.50
4697;DHT22;2362;50.780;0.292;2024-03-02T15:15:18;8.80;94.20
4697;DHT22;2362;50.780;0.292;2024-03-02T15:17:44;8.80;94.50
4697;DHT22;2362;50.780;0.292;2024-03-02T15:20:10;8.80;94.90
4697;DHT22;2362;50.780;0.292;2024-03-02T15:22:35;8.70;94.30
4697;DHT22;2362;50.780;0.292;2024-03-02T15:25:01;8.70;94.70
4697;DHT22;2362;50.780;0.292;2024-03-02T15:27:27;8.70;94.60
4697;DHT22;2362;50.780;0.292;2024-03-02T15:29:53;8.70;94.80
4697;DHT22;2362;50.780;0.292;2024-03-02T15:32:20;8.70;94.90
4697;DHT22;2362;50.780;0.292;2024-03-02T15:34:46;8.80;95.10
4697;DHT22;2362;50.780;0.292;2024-03-02T15:37:11;8.80;94.80
4697;DHT22;2362;50.780;0.292;2024-03-02T15:39:37;8.80;94.80
4697;DHT22;2362;50.780;0.292;2024-03-02T15:42:03;8.80;95.00
4697;DHT22;2362;50.780;0.292;2024-03-02T15:44:30;8.90;94.50
4697;DHT22;2362;50.780;0.292;2024-03-02T15:46:57;8.80;94.60
4697;DHT22;2362;50.780;0.292;2024-03-02T15:49:24;8.80;94.20
4697;DHT22;2362;50.780;0.292;2024-03-02T15:51:49;8.80;95.00
4697;DHT22;2362;50.780;0.292;2024-03-02T15:54:15;8.80;93.90
4697;DHT22;2362;50.780;0.292;2024-03-02T15:56:41;8.80;94.00
4697;DHT22;2362;50.780;0.292;2024-03-02T15:59:06;8.80;93.80
4697;DHT22;2362;50.780;0.292;2024-03-02T16:01:32;8.80;94.20
4697;DHT22;2362;50.780;0.292;2024-03-02T16:03:58;8.80;94.20
4697;DHT22;2362;50.780;0.292;2024-03-02T16:06:24;8.70;93.70
4697;DHT22;2362;50.780;0.292;2024-03-02T16:08:49;8.70;94.00
4697;DHT22;2362;50.780;0.292;2024-03-02T16:11:16;8.60;93.90
4697;DHT22;2362;50.780;0.292;2024-03-02T16:13:42;8.60;94.40
4697;DHT22;2362;50.780;0.292;2024-03-02T16:16:07;8.60;94.50
4697;DHT22;2362;50.780;0.292;2024-03-02T16:18:33;8.60;94.40
4697;DHT22;2362;50.780;0.292;2024-03-02T16:20:59;8.60;94.80
4697;DHT22;2362;50.780;0.292;2024-03-02T16:23:25;8.60;94.30